sensor_id;sensor_type;location;lat;lon;timestamp;P1;durP1;ratioP1;P2;durP2;ratioP2
17441;SDS011;8838;50.144;8.176;2024-02-14T00:00:28;5.77;;;3.00;;
17441;SDS011;8838;50.144;8.176;2024-02-14T00:02:55;5.37;;;3.00;;
17441;SDS011;8838;50.144;8.176;2024-02-14T00:05:22;6.70;;;3.13;;
17441;SDS011;8838;50.144;8.176;2024-02-14T00:07:49;5.70;;;2.80;;
17441;SDS011;8838;50.144;8.176;2024-02-14T00:10:15;6.97;;;3.10;;
17441;SDS011;8838;50.144;8.176;2024-02-14T00:12:44;5.40;;;3.10;;
17441;SDS011;8838;50.144;8.176;2024-02-14T00:15:11;8.43;;;3.03;;
17441;SDS011;8838;50.144;8.176;2024-02-14T00:17:38;8.20;;;3.20;;
17441;SDS011;8838;50.144;8.176;2024-02-14T00:20:06;6.27;;;2.80;;
17441;SDS011;8838;50.144;8.176;2024-02-14T00:22:36;6.80;;;2.63;;
17441;SDS011;8838;50.144;8.176;2024-02-14T00:25:03;5.00;;;2.80;;
17441;SDS011;8838;50.144;8.176;2024-02-14T00:27:30;3.33;;;2.67;;
17441;SDS011;8838;50.144;8.176;2024-02-14T00:29:59;3.43;;;2.43;;
17441;SDS011;8838;50.144;8.176;2024-02-14T00:32:26;7.97;;;2.80;;
17441;SDS011;8838;50.144;8.176;2024-02-14T00:34:52;5.83;;;2.57;;
17441;SDS011;8838;50.144;8.176;2024-02-14T00:37:19;8.23;;;2.90;;
17441;SDS011;8838;50.144;8.176;2024-02-14T00:39:46;6.10;;;2.30;;
17441;SDS011;8838;50.144;8.176;2024-02-14T00:42:15;6.07;;;2.70;;
17441;SDS011;8838;50.144;8.176;2024-02-14T00:44:42;5.67;;;2.80;;
17441;SDS011;8838;50.144;8.176;2024-02-14T00:47:10;4.70;;;2.40;;
17441;SDS011;8838;50.144;8.176;2024-02-14T00:49:37;5.83;;;2.63;;
17441;SDS011;8838;50.144;8.176;2024-02-14T00:52:04;6.07;;;2.47;;
17441;SDS011;8838;50.144;8.176;2024-02-14T00:54:31;6.50;;;2.60;;
17441;SDS011;8838;50.144;8.176;2024-02-14T00:56:58;6.03;;;2.90;;
17441;SDS011;8838;50.144;8.176;2024-02-14T00:59:25;5.77;;;2.67;;
17441;SDS011;8838;50.144;8.176;2024-02-14T01:01:52;6.23;;;2.60;;
17441;SDS011;8838;50.144;8.176;2024-02-14T01:04:20;5.43;;;2.60;;
17441;SDS011;8838;50.144;8.176;2024-02-14T01:06:47;5.47;;;3.07;;
17441;SDS011;8838;50.144;8.176;2024-02-14T01:09:16;4.27;;;2.63;;
17441;SDS011;8838;50.144;8.176;2024-02-14T01:11:43;10.63;;;3.43;;
17441;SDS011;8838;50.144;8.176;2024-02-14T01:14:10;6.77;;;2.80;;
17441;SDS011;8838;50.144;8.176;2024-02-14T01:16:41;8.63;;;2.50;;
17441;SDS011;8838;50.144;8.176;2024-02-14T01:19:09;6.57;;;2.83;;
17441;SDS011;8838;50.144;8.176;2024-02-14T01:21:37;5.43;;;2.77;;
17441;SDS011;8838;50.144;8.176;2024-02-14T01:24:04;6.83;;;3.00;;
17441;SDS011;8838;50.144;8.176;2024-02-14T01:26:33;6.03;;;2.97;;
17441;SDS011;8838;50.144;8.176;2024-02-14T01:29:00;4.33;;;2.60;;
17441;SDS011;8838;50.144;8.176;2024-02-14T01:31:27;7.23;;;2.93;;
17441;SDS011;8838;50.144;8.176;2024-02-14T01:33:55;7.30;;;2.90;;
17441;SDS011;8838;50.144;8.176;2024-02-14T01:36:24;5.30;;;2.73;;
17441;SDS011;8838;50.144;8.176;2024-02-14T01:38:52;5.53;;;2.57;;
17441;SDS011;8838;50.144;8.176;2024-02-14T01:41:19;5.70;;;2.70;;
17441;SDS011;8838;50.144;8.176;2024-02-14T01:43:46;4.37;;;2.70;;
17441;SDS011;8838;50.144;8.176;2024-02-14T01:46:13;9.23;;;3.43;;
17441;SDS011;8838;50.144;8.176;2024-02-14T01:48:40;5.47;;;2.60;;
17441;SDS011;8838;50.144;8.176;2024-02-14T01:51:08;5.33;;;2.90;;
17441;SDS011;8838;50.144;8.176;2024-02-14T01:53:36;3.77;;;2.50;;
17441;SDS011;8838;50.144;8.176;2024-02-14T01:56:05;7.37;;;3.00;;
17441;SDS011;8838;50.144;8.176;2024-02-14T01:58:33;5.27;;;2.83;;
17441;SDS011;8838;50.144;8.176;2024-02-14T02:01:01;5.90;;;2.80;;
17441;SDS011;8838;50.144;8.176;2024-02-14T02:03:29;7.40;;;2.83;;
17441;SDS011;8838;50.144;8.176;2024-02-14T02:06:00;6.90;;;2.67;;
17441;SDS011;8838;50.144;8.176;2024-02-14T02:08:27;6.47;;;2.90;;
17441;SDS011;8838;50.144;8.176;2024-02-14T02:10:54;6.53;;;2.77;;
17441;SDS011;8838;50.144;8.176;2024-02-14T02:13:23;7.30;;;2.90;;
17441;SDS011;8838;50.144;8.176;2024-02-14T02:15:51;5.43;;;2.70;;
17441;SDS011;8838;50.144;8.176;2024-02-14T02:18:20;7.83;;;2.70;;
17441;SDS011;8838;50.144;8.176;2024-02-14T02:20:47;7.90;;;3.50;;
17441;SDS011;8838;50.144;8.176;2024-02-14T02:23:15;7.37;;;3.10;;
17441;SDS011;8838;50.144;8.176;2024-02-14T02:25:42;7.13;;;2.80;;
17441;SDS011;8838;50.144;8.176;2024-02-14T02:28:09;5.40;;;2.80;;
17441;SDS011;8838;50.144;8.176;2024-02-14T02:30:38;4.67;;;2.50;;
17441;SDS011;8838;50.144;8.176;2024-02-14T02:33:07;7.20;;;2.97;;
17441;SDS011;8838;50.144;8.176;2024-02-14T02:35:35;5.33;;;2.63;;
17441;SDS011;8838;50.144;8.176;2024-02-14T02:38:02;6.23;;;3.10;;
17441;SDS011;8838;50.144;8.176;2024-02-14T02:40:30;5.60;;;2.80;;
17441;SDS011;8838;50.144;8.176;2024-02-14T02:42:59;6.07;;;3.00;;
17441;SDS011;8838;50.144;8.176;2024-02-14T02:45:26;6.40;;;2.93;;
17441;SDS011;8838;50.144;8.176;2024-02-14T02:47:53;6.80;;;3.10;;
17441;SDS011;8838;50.144;8.176;2024-02-14T02:50:21;6.57;;;3.03;;
17441;SDS011;8838;50.144;8.176;2024-02-14T02:52:48;5.90;;;3.00;;
17441;SDS011;8838;50.144;8.176;2024-02-14T02:55:15;5.87;;;2.90;;
17441;SDS011;8838;50.144;8.176;2024-02-14T02:57:44;6.13;;;3.00;;
17441;SDS011;8838;50.144;8.176;2024-02-14T03:00:12;6.83;;;2.60;;
17441;SDS011;8838;50.144;8.176;2024-02-14T03:02:41;7.37;;;2.60;;
17441;SDS011;8838;50.144;8.176;2024-02-14T03:05:09;4.90;;;2.70;;
17441;SDS011;8838;50.144;8.176;2024-02-14T03:07:42;8.37;;;2.60;;
17441;SDS011;8838;50.144;8.176;2024-02-14T03:10:10;6.40;;;2.60;;
17441;SDS011;8838;50.144;8.176;2024-02-14T03:12:40;10.37;;;3.37;;
17441;SDS011;8838;50.144;8.176;2024-02-14T03:15:10;4.70;;;2.20;;
17441;SDS011;8838;50.144;8.176;2024-02-14T03:17:38;4.20;;;2.20;;
17441;SDS011;8838;50.144;8.176;2024-02-14T03:20:06;6.63;;;2.60;;
17441;SDS011;8838;50.144;8.176;2024-02-14T03:22:38;7.57;;;2.47;;
17441;SDS011;8838;50.144;8.176;2024-02-14T03:25:09;5.17;;;2.13;;
17441;SDS011;8838;50.144;8.176;2024-02-14T03:27:38;5.30;;;2.40;;
17441;SDS011;8838;50.144;8.176;2024-02-14T03:30:05;5.20;;;2.40;;
17441;SDS011;8838;50.144;8.176;2024-02-14T03:32:34;4.83;;;2.63;;
17441;SDS011;8838;50.144;8.176;2024-02-14T03:35:01;4.70;;;2.40;;
17441;SDS011;8838;50.144;8.176;2024-02-14T03:37:28;7.67;;;2.43;;
17441;SDS011;8838;50.144;8.176;2024-02-14T03:39:55;4.33;;;2.40;;
17441;SDS011;8838;50.144;8.176;2024-02-14T03:42:22;4.17;;;2.50;;
17441;SDS011;8838;50.144;8.176;2024-02-14T03:44:49;7.40;;;2.60;;
17441;SDS011;8838;50.144;8.176;2024-02-14T03:47:15;7.93;;;2.87;;
17441;SDS011;8838;50.144;8.176;2024-02-14T03:49:44;5.40;;;2.77;;
17441;SDS011;8838;50.144;8.176;2024-02-14T03:52:11;7.60;;;3.20;;
17441;SDS011;8838;50.144;8.176;2024-02-14T03:54:37;7.10;;;3.20;;
17441;SDS011;8838;50.144;8.176;2024-02-14T03:57:07;8.07;;;3.03;;
17441;SDS011;8838;50.144;8.176;2024-02-14T03:59:35;6.77;;;3.23;;
17441;SDS011;8838;50.144;8.176;2024-02-14T04:02:04;7.07;;;3.50;;
17441;SDS011;8838;50.144;8.176;2024-02-14T04:04:32;6.43;;;3.17;;
17441;SDS011;8838;50.144;8.176;2024-02-14T04:07:02;7.53;;;3.20;;
17441;SDS011;8838;50.144;8.176;2024-02-14T04:09:34;4.63;;;3.20;;
17441;SDS011;8838;50.144;8.176;2024-02-14T04:12:03;5.80;;;3.10;;
17441;SDS011;8838;50.144;8.176;2024-02-14T04:14:31;7.10;;;3.57;;
17441;SDS011;8838;50.144;8.176;2024-02-14T04:16:57;9.53;;;3.17;;
17441;SDS011;8838;50.144;8.176;2024-02-14T04:19:24;6.43;;;3.27;;
17441;SDS011;8838;50.144;8.176;2024-02-14T04:21:51;6.37;;;3.30;;
17441;SDS011;8838;50.144;8.176;2024-02-14T04:24:19;5.97;;;3.13;;
17441;SDS011;8838;50.144;8.176;2024-02-14T04:26:46;9.87;;;3.83;;
17441;SDS011;8838;50.144;8.176;2024-02-14T04:29:14;8.13;;;3.50;;
17441;SDS011;8838;50.144;8.176;2024-02-14T04:31:41;8.27;;;3.53;;
17441;SDS011;8838;50.144;8.176;2024-02-14T04:34:08;6.43;;;3.37;;
17441;SDS011;8838;50.144;8.176;2024-02-14T04:36:36;8.23;;;3.07;;
17441;SDS011;8838;50.144;8.176;2024-02-14T04:39:02;7.37;;;3.50;;
17441;SDS011;8838;50.144;8.176;2024-02-14T04:41:30;8.80;;;3.50;;
17441;SDS011;8838;50.144;8.176;2024-02-14T04:43:57;8.27;;;3.33;;
17441;SDS011;8838;50.144;8.176;2024-02-14T04:46:24;9.07;;;3.53;;
17441;SDS011;8838;50.144;8.176;2024-02-14T04:48:51;5.90;;;3.20;;
17441;SDS011;8838;50.144;8.176;2024-02-14T04:51:18;7.53;;;3.20;;
17441;SDS011;8838;50.144;8.176;2024-02-14T04:53:45;7.73;;;3.03;;
17441;SDS011;8838;50.144;8.176;2024-02-14T04:56:12;6.07;;;3.00;;
17441;SDS011;8838;50.144;8.176;2024-02-14T04:58:40;8.20;;;2.93;;
17441;SDS011;8838;50.144;8.176;2024-02-14T05:01:06;8.40;;;3.43;;
17441;SDS011;8838;50.144;8.176;2024-02-14T05:03:33;8.10;;;3.20;;
17441;SDS011;8838;50.144;8.176;2024-02-14T05:06:01;6.83;;;3.70;;
17441;SDS011;8838;50.144;8.176;2024-02-14T05:08:30;8.77;;;3.10;;
17441;SDS011;8838;50.144;8.176;2024-02-14T05:10:57;7.90;;;3.20;;
17441;SDS011;8838;50.144;8.176;2024-02-14T05:13:25;7.77;;;3.17;;
17441;SDS011;8838;50.144;8.176;2024-02-14T05:15:53;4.80;;;3.20;;
17441;SDS011;8838;50.144;8.176;2024-02-14T05:18:19;5.07;;;3.30;;
17441;SDS011;8838;50.144;8.176;2024-02-14T05:20:46;7.20;;;3.20;;
17441;SDS011;8838;50.144;8.176;2024-02-14T05:23:14;6.77;;;3.17;;
17441;SDS011;8838;50.144;8.176;2024-02-14T05:25:42;8.23;;;3.50;;
17441;SDS011;8838;50.144;8.176;2024-02-14T05:28:10;5.43;;;3.37;;
17441;SDS011;8838;50.144;8.176;2024-02-14T05:30:38;7.60;;;3.60;;
17441;SDS011;8838;50.144;8.176;2024-02-14T05:33:07;8.13;;;3.47;;
17441;SDS011;8838;50.144;8.176;2024-02-14T05:35:34;7.10;;;3.50;;
17441;SDS011;8838;50.144;8.176;2024-02-14T05:38:00;8.17;;;3.60;;
17441;SDS011;8838;50.144;8.176;2024-02-14T05:40:29;7.93;;;3.83;;
17441;SDS011;8838;50.144;8.176;2024-02-14T05:42:56;7.07;;;3.23;;
17441;SDS011;8838;50.144;8.176;2024-02-14T05:45:23;8.70;;;3.47;;
17441;SDS011;8838;50.144;8.176;2024-02-14T05:47:50;9.23;;;3.37;;
17441;SDS011;8838;50.144;8.176;2024-02-14T05:50:18;9.70;;;3.67;;
17441;SDS011;8838;50.144;8.176;2024-02-14T05:52:45;6.83;;;3.63;;
17441;SDS011;8838;50.144;8.176;2024-02-14T05:55:12;8.97;;;3.27;;
17441;SDS011;8838;50.144;8.176;2024-02-14T05:57:40;9.13;;;3.70;;
17441;SDS011;8838;50.144;8.176;2024-02-14T06:00:09;9.30;;;3.90;;
17441;SDS011;8838;50.144;8.176;2024-02-14T06:02:37;6.03;;;3.20;;
17441;SDS011;8838;50.144;8.176;2024-02-14T06:05:06;8.53;;;3.10;;
17441;SDS011;8838;50.144;8.176;2024-02-14T06:07:37;7.10;;;3.47;;
17441;SDS011;8838;50.144;8.176;2024-02-14T06:10:04;7.17;;;3.10;;
17441;SDS011;8838;50.144;8.176;2024-02-14T06:12:31;9.27;;;3.50;;
17441;SDS011;8838;50.144;8.176;2024-02-14T06:14:58;10.07;;;3.60;;
17441;SDS011;8838;50.144;8.176;2024-02-14T06:17:25;10.57;;;3.70;;
17441;SDS011;8838;50.144;8.176;2024-02-14T06:19:52;6.73;;;3.70;;
17441;SDS011;8838;50.144;8.176;2024-02-14T06:22:19;6.83;;;3.63;;
17441;SDS011;8838;50.144;8.176;2024-02-14T06:24:47;7.93;;;4.00;;
17441;SDS011;8838;50.144;8.176;2024-02-14T06:27:14;8.77;;;3.50;;
17441;SDS011;8838;50.144;8.176;2024-02-14T06:29:41;6.93;;;3.20;;
17441;SDS011;8838;50.144;8.176;2024-02-14T06:34:39;9.53;;;3.97;;
17441;SDS011;8838;50.144;8.176;2024-02-14T06:37:06;9.37;;;3.63;;
17441;SDS011;8838;50.144;8.176;2024-02-14T06:39:32;9.47;;;3.73;;
17441;SDS011;8838;50.144;8.176;2024-02-14T06:42:01;9.30;;;3.50;;
17441;SDS011;8838;50.144;8.176;2024-02-14T06:44:28;6.67;;;3.60;;
17441;SDS011;8838;50.144;8.176;2024-02-14T06:46:54;8.00;;;3.67;;
17441;SDS011;8838;50.144;8.176;2024-02-14T06:49:21;7.83;;;3.50;;
17441;SDS011;8838;50.144;8.176;2024-02-14T06:51:49;6.40;;;3.43;;
17441;SDS011;8838;50.144;8.176;2024-02-14T06:54:15;8.13;;;3.50;;
17441;SDS011;8838;50.144;8.176;2024-02-14T06:56:44;6.60;;;3.50;;
17441;SDS011;8838;50.144;8.176;2024-02-14T06:59:12;7.23;;;3.17;;
17441;SDS011;8838;50.144;8.176;2024-02-14T07:01:39;7.37;;;3.57;;
17441;SDS011;8838;50.144;8.176;2024-02-14T07:04:06;9.07;;;3.60;;
17441;SDS011;8838;50.144;8.176;2024-02-14T07:06:32;9.37;;;3.80;;
17441;SDS011;8838;50.144;8.176;2024-02-14T07:08:59;6.13;;;3.60;;
17441;SDS011;8838;50.144;8.176;2024-02-14T07:11:26;7.03;;;3.47;;
17441;SDS011;8838;50.144;8.176;2024-02-14T07:13:53;8.27;;;3.10;;
17441;SDS011;8838;50.144;8.176;2024-02-14T07:16:21;9.37;;;3.70;;
17441;SDS011;8838;50.144;8.176;2024-02-14T07:18:49;8.47;;;3.70;;
17441;SDS011;8838;50.144;8.176;2024-02-14T07:21:16;10.83;;;3.77;;
17441;SDS011;8838;50.144;8.176;2024-02-14T07:23:43;8.60;;;3.90;;
17441;SDS011;8838;50.144;8.176;2024-02-14T07:26:09;9.00;;;3.80;;
17441;SDS011;8838;50.144;8.176;2024-02-14T07:28:36;6.00;;;3.40;;
17441;SDS011;8838;50.144;8.176;2024-02-14T07:31:03;9.10;;;3.63;;
17441;SDS011;8838;50.144;8.176;2024-02-14T07:33:31;6.83;;;3.60;;
17441;SDS011;8838;50.144;8.176;2024-02-14T07:35:58;7.33;;;3.50;;
17441;SDS011;8838;50.144;8.176;2024-02-14T07:38:25;10.73;;;3.23;;
17441;SDS011;8838;50.144;8.176;2024-02-14T07:40:52;6.93;;;2.97;;
17441;SDS011;8838;50.144;8.176;2024-02-14T07:43:19;10.10;;;3.27;;
17441;SDS011;8838;50.144;8.176;2024-02-14T07:45:46;6.97;;;3.00;;
17441;SDS011;8838;50.144;8.176;2024-02-14T07:48:13;9.43;;;3.17;;
17441;SDS011;8838;50.144;8.176;2024-02-14T07:50:41;9.40;;;3.50;;
17441;SDS011;8838;50.144;8.176;2024-02-14T07:53:08;9.47;;;3.33;;
17441;SDS011;8838;50.144;8.176;2024-02-14T07:55:34;7.50;;;3.10;;
17441;SDS011;8838;50.144;8.176;2024-02-14T07:58:01;7.63;;;3.40;;
17441;SDS011;8838;50.144;8.176;2024-02-14T08:00:28;5.90;;;3.30;;
17441;SDS011;8838;50.144;8.176;2024-02-14T08:02:55;6.90;;;3.40;;
17441;SDS011;8838;50.144;8.176;2024-02-14T08:05:21;7.23;;;3.37;;
17441;SDS011;8838;50.144;8.176;2024-02-14T08:07:50;7.33;;;3.17;;
17441;SDS011;8838;50.144;8.176;2024-02-14T08:10:16;8.70;;;3.57;;
17441;SDS011;8838;50.144;8.176;2024-02-14T08:12:43;5.90;;;3.20;;
17441;SDS011;8838;50.144;8.176;2024-02-14T08:15:10;6.73;;;3.70;;
17441;SDS011;8838;50.144;8.176;2024-02-14T08:17:37;4.30;;;3.30;;
17441;SDS011;8838;50.144;8.176;2024-02-14T08:20:04;8.10;;;3.13;;
17441;SDS011;8838;50.144;8.176;2024-02-14T08:22:32;6.40;;;3.57;;
17441;SDS011;8838;50.144;8.176;2024-02-14T08:25:00;13.30;;;4.03;;
17441;SDS011;8838;50.144;8.176;2024-02-14T08:27:27;5.67;;;3.67;;
17441;SDS011;8838;50.144;8.176;2024-02-14T08:29:56;8.67;;;3.40;;
17441;SDS011;8838;50.144;8.176;2024-02-14T08:32:23;8.30;;;3.60;;
17441;SDS011;8838;50.144;8.176;2024-02-14T08:34:50;11.87;;;3.53;;
17441;SDS011;8838;50.144;8.176;2024-02-14T08:37:16;8.77;;;3.40;;
17441;SDS011;8838;50.144;8.176;2024-02-14T08:39:43;8.93;;;4.20;;
17441;SDS011;8838;50.144;8.176;2024-02-14T08:42:11;8.37;;;3.90;;
17441;SDS011;8838;50.144;8.176;2024-02-14T08:44:38;8.57;;;3.60;;
17441;SDS011;8838;50.144;8.176;2024-02-14T08:47:06;7.93;;;4.13;;
17441;SDS011;8838;50.144;8.176;2024-02-14T08:49:33;6.77;;;3.87;;
17441;SDS011;8838;50.144;8.176;2024-02-14T08:52:00;8.70;;;3.77;;
17441;SDS011;8838;50.144;8.176;2024-02-14T08:54:27;6.70;;;3.50;;
17441;SDS011;8838;50.144;8.176;2024-02-14T08:56:54;8.47;;;4.27;;
17441;SDS011;8838;50.144;8.176;2024-02-14T08:59:25;7.00;;;3.53;;
17441;SDS011;8838;50.144;8.176;2024-02-14T09:01:52;6.23;;;3.20;;
17441;SDS011;8838;50.144;8.176;2024-02-14T09:04:19;5.33;;;3.13;;
17441;SDS011;8838;50.144;8.176;2024-02-14T09:06:46;6.20;;;3.30;;
17441;SDS011;8838;50.144;8.176;2024-02-14T09:09:12;6.00;;;3.70;;
17441;SDS011;8838;50.144;8.176;2024-02-14T09:11:40;5.17;;;3.40;;
17441;SDS011;8838;50.144;8.176;2024-02-14T09:14:07;5.80;;;3.60;;
17441;SDS011;8838;50.144;8.176;2024-02-14T09:16:36;9.03;;;3.70;;
17441;SDS011;8838;50.144;8.176;2024-02-14T09:19:03;6.97;;;3.77;;
17441;SDS011;8838;50.144;8.176;2024-02-14T09:21:32;7.20;;;3.70;;
17441;SDS011;8838;50.144;8.176;2024-02-14T09:24:00;6.93;;;3.53;;
17441;SDS011;8838;50.144;8.176;2024-02-14T09:26:27;5.33;;;3.90;;
17441;SDS011;8838;50.144;8.176;2024-02-14T09:28:54;5.40;;;2.97;;
17441;SDS011;8838;50.144;8.176;2024-02-14T09:31:21;4.93;;;3.63;;
17441;SDS011;8838;50.144;8.176;2024-02-14T09:33:50;5.00;;;4.10;;
17441;SDS011;8838;50.144;8.176;2024-02-14T09:36:21;5.03;;;3.70;;
17441;SDS011;8838;50.144;8.176;2024-02-14T09:38:48;6.57;;;3.67;;
17441;SDS011;8838;50.144;8.176;2024-02-14T09:41:15;5.80;;;3.70;;
17441;SDS011;8838;50.144;8.176;2024-02-14T09:43:47;5.87;;;3.60;;
17441;SDS011;8838;50.144;8.176;2024-02-14T09:46:14;9.33;;;3.93;;
17441;SDS011;8838;50.144;8.176;2024-02-14T09:48:41;6.90;;;3.57;;
17441;SDS011;8838;50.144;8.176;2024-02-14T09:51:11;7.10;;;4.07;;
17441;SDS011;8838;50.144;8.176;2024-02-14T09:53:38;6.80;;;3.43;;
17441;SDS011;8838;50.144;8.176;2024-02-14T09:56:06;8.20;;;4.10;;
17441;SDS011;8838;50.144;8.176;2024-02-14T09:58:36;7.20;;;3.80;;
17441;SDS011;8838;50.144;8.176;2024-02-14T10:01:03;7.17;;;3.90;;
17441;SDS011;8838;50.144;8.176;2024-02-14T10:03:31;6.93;;;3.50;;
17441;SDS011;8838;50.144;8.176;2024-02-14T10:06:00;5.43;;;3.90;;
17441;SDS011;8838;50.144;8.176;2024-02-14T10:08:28;8.00;;;4.10;;
17441;SDS011;8838;50.144;8.176;2024-02-14T10:10:56;7.40;;;3.57;;
17441;SDS011;8838;50.144;8.176;2024-02-14T10:13:26;4.90;;;3.67;;
17441;SDS011;8838;50.144;8.176;2024-02-14T10:15:53;5.90;;;3.70;;
17441;SDS011;8838;50.144;8.176;2024-02-14T10:18:20;7.40;;;4.13;;
17441;SDS011;8838;50.144;8.176;2024-02-14T10:20:54;4.37;;;3.40;;
17441;SDS011;8838;50.144;8.176;2024-02-14T10:23:21;6.70;;;3.47;;
17441;SDS011;8838;50.144;8.176;2024-02-14T10:25:50;6.57;;;4.00;;
17441;SDS011;8838;50.144;8.176;2024-02-14T10:28:18;7.30;;;3.70;;
17441;SDS011;8838;50.144;8.176;2024-02-14T10:30:46;6.33;;;3.90;;
17441;SDS011;8838;50.144;8.176;2024-02-14T10:33:15;6.30;;;3.70;;
17441;SDS011;8838;50.144;8.176;2024-02-14T10:35:42;6.27;;;3.93;;
17441;SDS011;8838;50.144;8.176;2024-02-14T10:38:09;5.10;;;3.37;;
17441;SDS011;8838;50.144;8.176;2024-02-14T10:40:37;5.17;;;3.53;;
17441;SDS011;8838;50.144;8.176;2024-02-14T10:43:06;6.10;;;3.27;;
17441;SDS011;8838;50.144;8.176;2024-02-14T10:45:35;6.17;;;3.57;;
17441;SDS011;8838;50.144;8.176;2024-02-14T10:48:03;4.97;;;3.20;;
17441;SDS011;8838;50.144;8.176;2024-02-14T10:50:32;4.67;;;2.70;;
17441;SDS011;8838;50.144;8.176;2024-02-14T10:53:03;4.07;;;2.50;;
17441;SDS011;8838;50.144;8.176;2024-02-14T10:55:31;3.20;;;1.40;;
17441;SDS011;8838;50.144;8.176;2024-02-14T10:57:59;4.00;;;1.40;;
17441;SDS011;8838;50.144;8.176;2024-02-14T11:00:29;4.65;;;1.20;;
17441;SDS011;8838;50.144;8.176;2024-02-14T11:02:57;2.10;;;1.13;;
17441;SDS011;8838;50.144;8.176;2024-02-14T11:05:25;3.15;;;1.90;;
17441;SDS011;8838;50.144;8.176;2024-02-14T11:07:52;3.80;;;2.20;;
17441;SDS011;8838;50.144;8.176;2024-02-14T11:10:20;4.03;;;1.92;;
17441;SDS011;8838;50.144;8.176;2024-02-14T11:12:49;3.78;;;2.35;;
17441;SDS011;8838;50.144;8.176;2024-02-14T11:15:17;3.95;;;2.10;;
17441;SDS011;8838;50.144;8.176;2024-02-14T11:17:46;4.13;;;2.37;;
17441;SDS011;8838;50.144;8.176;2024-02-14T11:20:17;3.53;;;2.38;;
17441;SDS011;8838;50.144;8.176;2024-02-14T11:22:54;6.45;;;2.70;;
17441;SDS011;8838;50.144;8.176;2024-02-14T11:25:22;3.35;;;1.90;;
17441;SDS011;8838;50.144;8.176;2024-02-14T11:27:54;4.82;;;2.28;;
17441;SDS011;8838;50.144;8.176;2024-02-14T11:30:28;5.30;;;2.28;;
17441;SDS011;8838;50.144;8.176;2024-02-14T11:32:57;3.22;;;1.83;;
17441;SDS011;8838;50.144;8.176;2024-02-14T11:35:38;3.20;;;2.20;;
17441;SDS011;8838;50.144;8.176;2024-02-14T11:38:06;3.60;;;2.13;;
17441;SDS011;8838;50.144;8.176;2024-02-14T11:40:34;2.47;;;1.95;;
17441;SDS011;8838;50.144;8.176;2024-02-14T11:43:01;2.43;;;2.00;;
17441;SDS011;8838;50.144;8.176;2024-02-14T11:45:27;4.03;;;2.00;;
17441;SDS011;8838;50.144;8.176;2024-02-14T11:47:54;5.03;;;1.80;;
17441;SDS011;8838;50.144;8.176;2024-02-14T11:50:23;1.98;;;1.60;;
17441;SDS011;8838;50.144;8.176;2024-02-14T11:52:50;3.40;;;2.03;;
17441;SDS011;8838;50.144;8.176;2024-02-14T11:55:18;2.85;;;2.00;;
17441;SDS011;8838;50.144;8.176;2024-02-14T11:57:53;2.65;;;1.67;;
17441;SDS011;8838;50.144;8.176;2024-02-14T12:00:20;3.37;;;2.00;;
17441;SDS011;8838;50.144;8.176;2024-02-14T12:02:47;3.07;;;1.60;;
17441;SDS011;8838;50.144;8.176;2024-02-14T12:05:16;3.67;;;1.88;;
17441;SDS011;8838;50.144;8.176;2024-02-14T12:07:43;3.60;;;1.70;;
17441;SDS011;8838;50.144;8.176;2024-02-14T12:10:10;3.75;;;1.70;;
17441;SDS011;8838;50.144;8.176;2024-02-14T12:12:37;2.17;;;1.60;;
17441;SDS011;8838;50.144;8.176;2024-02-14T12:15:04;3.33;;;1.80;;
17441;SDS011;8838;50.144;8.176;2024-02-14T12:17:36;3.28;;;1.85;;
17441;SDS011;8838;50.144;8.176;2024-02-14T12:20:07;2.17;;;1.38;;
17441;SDS011;8838;50.144;8.176;2024-02-14T12:22:37;4.25;;;1.58;;
17441;SDS011;8838;50.144;8.176;2024-02-14T12:25:05;4.47;;;1.88;;
17441;SDS011;8838;50.144;8.176;2024-02-14T12:27:32;3.08;;;1.60;;
17441;SDS011;8838;50.144;8.176;2024-02-14T12:30:02;1.57;;;1.47;;
17441;SDS011;8838;50.144;8.176;2024-02-14T12:32:30;3.03;;;1.50;;
17441;SDS011;8838;50.144;8.176;2024-02-14T12:34:57;4.07;;;2.17;;
17441;SDS011;8838;50.144;8.176;2024-02-14T12:37:24;2.80;;;1.40;;
17441;SDS011;8838;50.144;8.176;2024-02-14T12:39:52;3.28;;;1.73;;
17441;SDS011;8838;50.144;8.176;2024-02-14T12:42:20;1.95;;;1.35;;
17441;SDS011;8838;50.144;8.176;2024-02-14T12:44:50;2.00;;;1.48;;
17441;SDS011;8838;50.144;8.176;2024-02-14T12:47:18;2.83;;;1.77;;
17441;SDS011;8838;50.144;8.176;2024-02-14T12:49:46;4.68;;;1.65;;
17441;SDS011;8838;50.144;8.176;2024-02-14T12:52:14;2.42;;;1.50;;
17441;SDS011;8838;50.144;8.176;2024-02-14T12:54:41;3.55;;;1.98;;
17441;SDS011;8838;50.144;8.176;2024-02-14T12:57:09;2.28;;;1.67;;
17441;SDS011;8838;50.144;8.176;2024-02-14T12:59:36;3.15;;;1.90;;
17441;SDS011;8838;50.144;8.176;2024-02-14T13:02:03;2.75;;;2.03;;
17441;SDS011;8838;50.144;8.176;2024-02-14T13:04:31;4.30;;;2.40;;
17441;SDS011;8838;50.144;8.176;2024-02-14T13:06:58;4.35;;;2.80;;
17441;SDS011;8838;50.144;8.176;2024-02-14T13:09:25;3.35;;;2.72;;
17441;SDS011;8838;50.144;8.176;2024-02-14T13:11:52;4.35;;;3.20;;
17441;SDS011;8838;50.144;8.176;2024-02-14T13:14:21;6.57;;;2.97;;
17441;SDS011;8838;50.144;8.176;2024-02-14T13:16:48;5.20;;;3.20;;
17441;SDS011;8838;50.144;8.176;2024-02-14T13:19:14;4.45;;;2.90;;
17441;SDS011;8838;50.144;8.176;2024-02-14T13:21:42;4.72;;;3.03;;
17441;SDS011;8838;50.144;8.176;2024-02-14T13:24:10;4.95;;;3.40;;
17441;SDS011;8838;50.144;8.176;2024-02-14T13:26:38;4.97;;;3.30;;
17441;SDS011;8838;50.144;8.176;2024-02-14T13:29:05;4.78;;;3.15;;
17441;SDS011;8838;50.144;8.176;2024-02-14T13:31:34;4.13;;;3.28;;
17441;SDS011;8838;50.144;8.176;2024-02-14T13:34:01;4.30;;;3.13;;
17441;SDS011;8838;50.144;8.176;2024-02-14T13:36:29;6.03;;;3.30;;
17441;SDS011;8838;50.144;8.176;2024-02-14T13:38:57;5.68;;;3.00;;
17441;SDS011;8838;50.144;8.176;2024-02-14T13:41:25;6.38;;;3.53;;
17441;SDS011;8838;50.144;8.176;2024-02-14T13:43:52;4.20;;;3.30;;
17441;SDS011;8838;50.144;8.176;2024-02-14T13:46:19;4.22;;;3.33;;
17441;SDS011;8838;50.144;8.176;2024-02-14T13:48:47;5.15;;;3.40;;
17441;SDS011;8838;50.144;8.176;2024-02-14T13:51:14;4.38;;;3.60;;
17441;SDS011;8838;50.144;8.176;2024-02-14T13:53:41;4.45;;;3.20;;
17441;SDS011;8838;50.144;8.176;2024-02-14T13:56:08;5.45;;;3.90;;
17441;SDS011;8838;50.144;8.176;2024-02-14T13:58:36;5.30;;;3.78;;
17441;SDS011;8838;50.144;8.176;2024-02-14T14:01:03;5.82;;;3.53;;
17441;SDS011;8838;50.144;8.176;2024-02-14T14:03:32;4.45;;;3.63;;
17441;SDS011;8838;50.144;8.176;2024-02-14T14:06:03;7.88;;;3.88;;
17441;SDS011;8838;50.144;8.176;2024-02-14T14:08:33;6.30;;;4.05;;
17441;SDS011;8838;50.144;8.176;2024-02-14T14:11:01;6.50;;;3.95;;
17441;SDS011;8838;50.144;8.176;2024-02-14T14:13:29;5.88;;;4.13;;
17441;SDS011;8838;50.144;8.176;2024-02-14T14:15:56;6.15;;;4.47;;
17441;SDS011;8838;50.144;8.176;2024-02-14T14:18:23;7.15;;;4.60;;
17441;SDS011;8838;50.144;8.176;2024-02-14T14:20:49;6.50;;;4.47;;
17441;SDS011;8838;50.144;8.176;2024-02-14T14:23:18;6.07;;;4.57;;
17441;SDS011;8838;50.144;8.176;2024-02-14T14:25:44;4.78;;;4.28;;
17441;SDS011;8838;50.144;8.176;2024-02-14T14:28:11;8.05;;;4.80;;
17441;SDS011;8838;50.144;8.176;2024-02-14T14:30:39;5.97;;;4.85;;
17441;SDS011;8838;50.144;8.176;2024-02-14T14:33:06;7.32;;;4.78;;
17441;SDS011;8838;50.144;8.176;2024-02-14T14:35:33;7.97;;;5.22;;
17441;SDS011;8838;50.144;8.176;2024-02-14T14:38:00;5.93;;;4.75;;
17441;SDS011;8838;50.144;8.176;2024-02-14T14:40:29;6.95;;;4.93;;
17441;SDS011;8838;50.144;8.176;2024-02-14T14:42:56;6.88;;;5.15;;
17441;SDS011;8838;50.144;8.176;2024-02-14T14:45:23;6.22;;;4.90;;
17441;SDS011;8838;50.144;8.176;2024-02-14T14:47:49;6.38;;;4.50;;
17441;SDS011;8838;50.144;8.176;2024-02-14T14:50:16;7.03;;;4.55;;
17441;SDS011;8838;50.144;8.176;2024-02-14T14:52:44;7.72;;;4.70;;
17441;SDS011;8838;50.144;8.176;2024-02-14T14:55:10;6.10;;;4.75;;
17441;SDS011;8838;50.144;8.176;2024-02-14T14:57:39;6.28;;;4.90;;
17441;SDS011;8838;50.144;8.176;2024-02-14T15:00:06;6.63;;;5.30;;
17441;SDS011;8838;50.144;8.176;2024-02-14T15:02:35;7.65;;;5.43;;
17441;SDS011;8838;50.144;8.176;2024-02-14T15:05:04;8.20;;;5.53;;